Redwood City, CA (94065)

10:04 PM PDT on August 19, 2014 (GMT -0700)
Neighborhood 4 | Change Station
CLOSE
Current Station
Personal Weather Station
Location: Foster City, CA
Elevation: 12 ft
Nearby Weather Stations

Elev 12 ft 37.55 °N, 122.26 °W | Updated 10 seconds ago

Clear
Clear
63.5 °F
Feels Like 63.5 °F
N
0.0
Wind Variable Wind from West
Gusts 1.0 mph

Today
High -- | Low -- °F
--% Chance of Precip.
Yesterday
High -- | Low -- °F
Precip. -- in
6:28 AM 7:56 PM
Waning Crescent, 24% visible
Pressure 29.85 in
Visibility 10.0 miles
Clouds Clear
Dew Point 58 °F
Humidity 83%
Rainfall 0.00 in
Snow Depth Not available.
UV 0.0 out of 12
Pollen 4.90 out of 12
PM2.5 Good
Flu Activity Not available.
METAR KSQL 200450Z AUTO 26004KT 10SM CLR 18/14 A2985 RMK AO2

More Conditions Fewer Conditions

Pressure 29.85 in
Visibility 10.0 miles
Clouds Clear
Dew Point 58 °F
Humidity 83%
Rainfall 0.00 in
Snow Depth Not available.
UV 0.0 out of 12
Pollen 4.90 out of 12
PM2.5 Good
Flu Activity Not available.
METAR KSQL 200450Z AUTO 26004KT 10SM CLR 18/14 A2985 RMK AO2

More Conditions Fewer Conditions

10-Day Weather Forecast

Almanac

Astronomy

Aug. 19, 2014 Rise Set
Actual Time 6:28 AM PDT 7:56 PM PDT
Civil Twilight 6:00 AM PDT 8:23 PM PDT
Nautical Twilight 5:27 AM PDT 8:56 PM PDT
Astronomical Twilight 4:52 AM PDT 9:31 PM PDT
Moon 1:26 AM PDT (8/19) 3:55 PM PDT (8/19)
Length of Visible Light 14h 22m
Length of Day
13h 27m
Tomorrow will be 2m 11s shorter.
Waning Crescent, 24% of the Moon is Illuminated
Aug 20
Waning Crescent
Aug 25
New
Sep 2
First Quarter
Sep 8
Full
Sep 15
Last Quarter

Yesterday's Extremes

State Highs State Lows

Community

WunderPhotos

Upload Photos

1,745,589 photos uploaded!

Nearby

Air Quality

  Air Quality AQ Index Pollutant
Yesterday Good
OZONE
Yesterday Good
PM2.5
Current Good
PM2.5
Tuesday Good
OZONE
Wednesday Good
OZONE
Thursday Good
OZONE
Friday Good
OZONE
Saturday Good
OZONE
Sunday Good
OZONE

Snow Depth

Station Depth Elevation
Blue Lakes 0 in 8000 ft
Echo Peak 1 in 7800 ft
Leavitt Lake 0 in 9400 ft
Hagan's Meadow 0 in 8000 ft
Leavitt Meadows 0 in 7200 ft

Earthquake Activity

City Distance Mag. Time & Date
King City, California 114 miles 2.9 8:01 PM PDT
2014-08-14
The Geysers, California 90 miles 2.6 8:55 PM PDT
2014-08-13
Upper Lake, California 129 miles 2.9 3:32 PM PDT
2014-08-13
Minimum magnitude displayed is 2.5.

Coastal Water Temperatures

Place Temperature
No Stations Reporting

Nearby Weather Stations